Time;durP1;ratioP1;P1;durP2;ratioP2;P2;SDS_P1;SDS_P2;PMS_P1;PMS_P2;Temp;Humidity;BMP_temperature;BMP_pressure;BME280_temperature;BME280_humidity;BME280_pressure;Samples;Min_cycle;Max_cycle;Signal;HPM_P1;HPM_P2
2023/01/06 00:02:12;;;;;;;3.37;1.97;;;2.90;99.90;;;;;;4958537;28;20191;-87
2023/01/06 00:04:37;;;;;;;2.53;1.70;;;2.90;99.90;;;;;;4958923;28;20191;-87
2023/01/06 00:07:03;;;;;;;1.60;1.50;;;2.80;99.90;;;;;;4958295;28;20246;-87
2023/01/06 00:09:30;;;;;;;3.03;1.60;;;2.80;99.90;;;;;;4959080;28;20546;-87
2023/01/06 00:11:55;;;;;;;2.37;1.60;;;2.80;99.90;;;;;;4974607;28;20194;-87
2023/01/06 00:14:21;;;;;;;1.40;1.20;;;;;;;;;;4975208;28;20187;-87
2023/01/06 00:16:47;;;;;;;1.43;1.33;;;2.70;99.90;;;;;;4958493;28;20186;-87
2023/01/06 00:19:13;;;;;;;1.17;1.10;;;2.70;99.90;;;;;;4974288;28;20265;-87
2023/01/06 00:21:41;;;;;;;1.70;1.60;;;2.70;99.90;;;;;;4958321;28;20190;-87
2023/01/06 00:24:07;;;;;;;2.30;1.67;;;2.70;99.90;;;;;;4958981;28;20690;-87
2023/01/06 00:26:33;;;;;;;1.20;1.20;;;2.70;99.90;;;;;;4974262;28;20217;-87
2023/01/06 00:28:59;;;;;;;1.00;1.00;;;2.60;99.90;;;;;;4974549;28;20190;-87
2023/01/06 00:31:24;;;;;;;1.00;1.00;;;2.60;99.90;;;;;;4990145;28;20253;-86
2023/01/06 00:33:50;;;;;;;1.57;1.47;;;2.60;99.90;;;;;;4973852;28;20628;-87
2023/01/06 00:36:16;;;;;;;2.13;1.87;;;2.60;99.90;;;;;;4974141;28;20240;-87
2023/01/06 00:38:42;;;;;;;1.10;1.10;;;2.50;99.90;;;;;;4975065;28;20205;-87
2023/01/06 00:43:56;;;;;;;1.30;1.20;;;2.40;99.90;;;;;;4975176;28;20313;-87
2023/01/06 00:46:25;;;;;;;1.87;1.70;;;2.30;99.90;;;;;;4975070;28;20206;-87
2023/01/06 00:48:51;;;;;;;1.13;1.13;;;2.30;99.90;;;;;;4990165;28;20194;-86
2023/01/06 00:51:16;;;;;;;1.50;1.40;;;2.20;99.90;;;;;;4942596;28;20205;-87
2023/01/06 00:53:42;;;;;;;1.23;1.13;;;2.10;99.90;;;;;;4960126;28;20284;-87
2023/01/06 00:56:08;;;;;;;0.93;0.93;;;2.00;99.90;;;;;;4959011;28;20631;-86
2023/01/06 00:58:33;;;;;;;1.90;1.23;;;2.00;99.90;;;;;;4974527;28;20661;-87
2023/01/06 01:01:04;;;;;;;2.10;1.90;;;1.90;99.90;;;;;;4954534;28;20555;-86
2023/01/06 01:03:31;;;;;;;1.80;1.70;;;2.00;99.90;;;;;;4953730;29;20322;-86
2023/01/06 01:06:02;;;;;;;1.73;1.63;;;1.90;99.90;;;;;;4938810;29;20206;-86
2023/01/06 01:08:28;;;;;;;1.07;1.07;;;2.00;99.90;;;;;;4953913;29;20245;-86
2023/01/06 01:10:54;;;;;;;1.73;1.63;;;2.00;99.90;;;;;;4954166;29;20648;-87
2023/01/06 01:13:20;;;;;;;1.20;1.10;;;2.00;99.90;;;;;;4938203;29;20217;-86
2023/01/06 01:15:46;;;;;;;1.13;1.03;;;2.00;99.90;;;;;;4955483;29;20218;-87
2023/01/06 01:18:11;;;;;;;2.17;1.90;;;2.00;99.90;;;;;;4954126;29;20278;-86
2023/01/06 01:20:37;;;;;;;1.70;1.50;;;2.00;99.90;;;;;;4949544;28;20186;-86
2023/01/06 01:23:03;;;;;;;1.40;1.30;;;1.90;99.90;;;;;;4974855;28;20649;-87
2023/01/06 01:25:28;;;;;;;2.00;1.80;;;2.00;99.90;;;;;;4973021;28;20734;-88
2023/01/06 01:27:54;;;;;;;1.60;1.50;;;1.90;99.90;;;;;;4973607;28;20723;-86
2023/01/06 01:30:20;;;;;;;2.87;2.23;;;1.90;99.90;;;;;;4974576;28;20211;-87
2023/01/06 01:32:46;;;;;;;2.03;1.93;;;1.90;99.90;;;;;;4956250;28;20206;-86
2023/01/06 01:35:12;;;;;;;3.03;1.60;;;1.90;99.90;;;;;;4973789;28;20687;-86
2023/01/06 01:37:38;;;;;;;1.27;1.20;;;1.90;99.90;;;;;;4956927;28;20217;-86
2023/01/06 01:40:04;;;;;;;2.00;1.73;;;1.90;99.90;;;;;;4957344;28;20193;-86
2023/01/06 01:42:30;;;;;;;2.23;1.80;;;1.80;99.90;;;;;;4957223;28;20181;-86
2023/01/06 01:45:06;;;;;;;1.50;1.40;;;1.80;99.90;;;;;;4956967;28;20217;-86
2023/01/06 01:47:31;;;;;;;2.03;1.83;;;1.80;99.90;;;;;;4953763;29;20190;-90
2023/01/06 01:50:19;;;;;;;0.90;0.90;;;1.70;99.90;;;;;;4956248;28;20193;-90
2023/01/06 01:52:48;;;;;;;2.03;1.60;;;1.70;99.90;;;;;;4974151;28;20183;-87
2023/01/06 01:55:15;;;;;;;3.00;1.50;;;1.70;99.90;;;;;;4972953;28;20194;-87
2023/01/06 01:57:58;;;;;;;3.00;1.80;;;1.60;99.90;;;;;;4972936;28;20202;-87
2023/01/06 02:00:23;;;;;;;2.13;1.40;;;1.50;99.90;;;;;;4974300;28;20635;-87
2023/01/06 02:02:49;;;;;;;1.50;1.43;;;1.60;99.90;;;;;;4957892;28;20179;-87
2023/01/06 02:05:20;;;;;;;1.97;1.33;;;1.60;99.90;;;;;;4977980;28;20214;-87
2023/01/06 02:07:46;;;;;;;1.57;1.47;;;1.60;99.90;;;;;;4976395;28;20583;-87
2023/01/06 02:10:14;;;;;;;1.50;1.40;;;1.60;99.90;;;;;;4977713;28;20178;-88
2023/01/06 02:12:40;;;;;;;2.17;1.73;;;1.60;99.90;;;;;;4977616;28;20667;-88
2023/01/06 02:15:24;;;;;;;1.87;1.77;;;1.60;99.90;;;;;;4960925;28;20194;-87
2023/01/06 02:18:02;;;;;;;1.57;1.47;;;1.60;99.90;;;;;;4976521;28;20182;-87
2023/01/06 02:20:27;;;;;;;1.10;1.10;;;1.50;99.90;;;;;;4977060;28;20165;-88
2023/01/06 02:23:24;;;;;;;2.17;1.97;;;1.50;99.90;;;;;;4966587;28;20723;-87
2023/01/06 02:26:18;;;;;;;2.00;1.67;;;1.50;99.90;;;;;;4956834;29;20567;-87
2023/01/06 02:28:46;;;;;;;3.03;2.20;;;1.50;99.90;;;;;;4958138;29;20640;-88
2023/01/06 02:31:21;;;;;;;3.17;2.30;;;1.50;99.90;;;;;;4974652;28;20278;-87
2023/01/06 02:34:05;;;;;;;3.50;2.20;;;1.40;99.90;;;;;;4959940;28;20188;-87
2023/01/06 02:36:34;;;;;;;2.20;2.00;;;1.40;99.90;;;;;;4960101;28;20237;-87
2023/01/06 02:39:47;;;;;;;3.20;1.07;;;1.40;99.90;;;;;;4959930;28;20234;-87
2023/01/06 02:42:19;;;;;;;4.40;2.73;;;1.40;99.90;;;;;;4957846;28;20277;-88
2023/01/06 02:45:07;;;;;;;5.50;3.10;;;1.40;99.90;;;;;;4976647;28;20261;-87
2023/01/06 02:47:47;;;;;;;3.73;3.23;;;1.40;99.90;;;;;;4976903;28;20191;-88
2023/01/06 02:50:26;;;;;;;1.70;1.60;;;1.40;99.90;;;;;;4976285;28;20240;-88
2023/01/06 02:53:27;;;;;;;2.00;1.90;;;1.40;99.90;;;;;;4976664;28;20657;-88
2023/01/06 02:55:56;;;;;;;2.33;2.13;;;1.40;99.90;;;;;;4975308;28;20195;-88
2023/01/06 02:58:47;;;;;;;1.97;1.77;;;1.40;99.90;;;;;;4976277;28;20175;-87
2023/01/06 03:01:27;;;;;;;3.27;1.93;;;1.40;99.90;;;;;;4976229;28;20225;-87
2023/01/06 03:03:57;;;;;;;1.30;1.30;;;1.40;99.90;;;;;;4979299;28;20249;-87
2023/01/06 03:06:28;;;;;;;2.97;1.97;;;1.40;99.90;;;;;;4979305;28;20202;-86
2023/01/06 03:08:55;;;;;;;2.43;2.23;;;1.40;99.90;;;;;;4960867;28;20233;-87
2023/01/06 03:11:21;;;;;;;1.70;1.60;;;1.40;99.90;;;;;;4959008;28;20568;-87
2023/01/06 03:14:05;;;;;;;1.53;1.43;;;1.40;99.90;;;;;;4974386;28;20201;-87
2023/01/06 03:16:31;;;;;;;1.77;1.67;;;1.50;99.90;;;;;;4976820;28;20193;-87
2023/01/06 03:18:57;;;;;;;3.77;2.13;;;1.40;99.90;;;;;;4963798;28;20663;-87
2023/01/06 03:21:28;;;;;;;2.60;2.40;;;1.50;99.90;;;;;;4976117;28;20185;-87
2023/01/06 03:23:54;;;;;;;2.23;1.97;;;1.40;99.90;;;;;;4974232;28;20177;-87
2023/01/06 03:26:20;;;;;;;1.50;1.40;;;1.40;99.90;;;;;;4958554;28;20297;-87
2023/01/06 03:28:46;;;;;;;2.87;1.80;;;1.40;99.90;;;;;;4958514;28;20207;-89
2023/01/06 03:31:31;;;;;;;3.47;2.37;;;1.50;99.90;;;;;;4958713;28;20262;-87
2023/01/06 03:34:19;;;;;;;1.73;1.63;;;1.40;99.90;;;;;;4972133;28;20586;-87
2023/01/06 03:37:16;;;;;;;3.67;2.60;;;1.40;99.90;;;;;;4954639;28;20190;-87
2023/01/06 03:39:53;;;;;;;3.23;2.67;;;1.40;99.90;;;;;;4974274;28;20183;-87
2023/01/06 03:45:38;;;;;;;1.60;1.50;;;1.30;99.90;;;;;;4975185;28;20215;-88
2023/01/06 03:48:21;;;;;;;1.43;1.33;;;1.40;99.90;;;;;;4975135;28;20175;-89
2023/01/06 03:51:04;;;;;;;2.30;1.90;;;1.40;99.90;;;;;;4973309;28;20189;-87
2023/01/06 03:53:32;;;;;;;2.33;1.77;;;1.40;99.90;;;;;;4973950;28;20191;-87
2023/01/06 03:56:26;;;;;;;3.60;3.20;;;1.40;99.90;;;;;;4957523;28;20544;-87
2023/01/06 03:58:59;;;;;;;2.07;1.87;;;1.40;99.90;;;;;;4957617;28;20179;-87
2023/01/06 04:01:25;;;;;;;1.80;1.60;;;1.40;99.90;;;;;;4973721;28;20703;-88
2023/01/06 04:03:53;;;;;;;2.03;1.70;;;1.40;99.90;;;;;;4957683;28;20667;-88
2023/01/06 04:06:18;;;;;;;4.30;1.70;;;1.30;99.90;;;;;;4974894;28;20301;-87
2023/01/06 04:08:45;;;;;;;3.03;2.43;;;1.40;99.90;;;;;;4957353;28;20333;-87
2023/01/06 04:12:37;;;;;;;1.53;1.43;;;1.40;99.90;;;;;;4974558;28;20190;-88
2023/01/06 04:13:57;;;;;;;2.87;2.57;;;1.40;99.90;;;;;;4974330;28;20245;-88
2023/01/06 04:16:23;;;;;;;1.60;1.50;;;1.40;99.90;;;;;;4974654;28;20640;-87
2023/01/06 04:18:49;;;;;;;1.80;1.20;;;1.40;99.90;;;;;;4974494;28;20525;-87
2023/01/06 04:21:14;;;;;;;3.10;1.80;;;1.40;99.90;;;;;;4974204;28;20210;-87
2023/01/06 04:23:40;;;;;;;3.97;1.93;;;1.40;99.90;;;;;;4957311;28;20240;-88
2023/01/06 04:26:06;;;;;;;1.70;1.60;;;1.30;99.90;;;;;;4956628;28;20596;-87
2023/01/06 04:28:31;;;;;;;3.40;2.37;;;1.40;99.90;;;;;;4941280;28;20633;-88
2023/01/06 04:30:58;;;;;;;2.07;1.63;;;1.30;99.90;;;;;;4940970;28;20194;-88
2023/01/06 04:33:24;;;;;;;1.70;1.60;;;1.40;99.90;;;;;;4974739;28;20181;-87
2023/01/06 04:35:50;;;;;;;2.33;2.13;;;1.30;99.90;;;;;;4942532;28;20582;-88
2023/01/06 04:38:15;;;;;;;3.67;2.57;;;1.30;99.90;;;;;;4957196;28;20186;-87
2023/01/06 04:40:41;;;;;;;2.80;2.07;;;1.30;99.90;;;;;;4973096;28;20552;-88
2023/01/06 04:43:12;;;;;;;3.47;2.90;;;1.30;99.90;;;;;;4956927;28;20696;-88
2023/01/06 04:45:39;;;;;;;2.27;2.07;;;1.20;99.90;;;;;;4974143;28;20242;-88
2023/01/06 04:48:05;;;;;;;1.93;1.83;;;1.20;99.90;;;;;;4973994;28;20175;-87
2023/01/06 04:50:31;;;;;;;3.43;2.83;;;1.10;99.90;;;;;;4954490;28;20244;-87
2023/01/06 04:52:57;;;;;;;3.83;2.23;;;1.10;99.90;;;;;;4956507;28;20658;-87
2023/01/06 04:55:23;;;;;;;3.87;2.57;;;1.10;99.90;;;;;;4956966;28;20317;-87
2023/01/06 04:57:49;;;;;;;5.30;2.67;;;1.10;99.90;;;;;;4972876;28;20641;-87
2023/01/06 05:00:16;;;;;;;2.30;2.10;;;1.00;99.90;;;;;;4972672;28;20219;-87
2023/01/06 05:02:42;;;;;;;3.40;2.87;;;;;;;;;;4956635;28;20183;-88
2023/01/06 05:05:08;;;;;;;8.13;3.30;;;1.00;99.90;;;;;;4953132;28;20195;-87
2023/01/06 05:07:34;;;;;;;1.30;1.30;;;1.00;99.90;;;;;;4956384;28;20237;-87
2023/01/06 05:09:59;;;;;;;4.20;3.03;;;1.00;99.90;;;;;;4973696;28;20193;-88
2023/01/06 05:12:25;;;;;;;2.10;2.00;;;0.90;99.90;;;;;;4956468;28;20174;-87
2023/01/06 05:14:51;;;;;;;2.97;2.63;;;0.80;99.90;;;;;;4956409;28;20193;-88
2023/01/06 05:17:16;;;;;;;3.70;2.33;;;0.90;99.90;;;;;;4940407;28;20525;-87
2023/01/06 05:19:43;;;;;;;5.53;2.97;;;0.90;99.90;;;;;;4956371;28;20193;-88
2023/01/06 05:22:10;;;;;;;1.93;1.83;;;0.80;99.90;;;;;;4973571;28;20265;-87
2023/01/06 05:24:36;;;;;;;2.57;2.00;;;0.80;99.90;;;;;;4973600;28;20183;-87
2023/01/06 05:27:02;;;;;;;1.63;1.53;;;0.90;99.90;;;;;;4956165;28;20260;-89
2023/01/06 05:29:28;;;;;;;2.90;1.73;;;0.90;99.90;;;;;;4972630;28;20233;-87
2023/01/06 05:31:54;;;;;;;4.50;3.13;;;0.90;99.90;;;;;;4956453;28;20581;-88
2023/01/06 05:34:20;;;;;;;5.13;2.47;;;0.80;99.90;;;;;;4956219;28;20183;-87
2023/01/06 05:36:45;;;;;;;4.40;2.50;;;0.80;99.90;;;;;;4956214;28;20210;-88
2023/01/06 05:39:11;;;;;;;3.07;2.23;;;0.80;99.90;;;;;;4959606;28;20233;-87
2023/01/06 05:41:37;;;;;;;3.00;1.73;;;0.80;99.90;;;;;;4960374;28;20265;-88
2023/01/06 05:44:02;;;;;;;4.40;1.97;;;1.00;99.90;;;;;;4960213;28;20187;-88
2023/01/06 05:46:28;;;;;;;2.57;2.37;;;0.80;99.90;;;;;;4960362;28;20296;-87
2023/01/06 05:48:54;;;;;;;1.77;1.67;;;0.80;99.90;;;;;;4943266;28;20181;-88
2023/01/06 05:51:19;;;;;;;2.77;2.43;;;0.90;99.90;;;;;;4967704;28;20192;-88
2023/01/06 05:53:46;;;;;;;1.73;1.63;;;0.90;99.90;;;;;;4956645;29;20199;-88
2023/01/06 05:56:15;;;;;;;1.63;1.53;;;0.90;99.90;;;;;;4957922;29;20642;-88
2023/01/06 05:58:43;;;;;;;2.33;1.93;;;0.90;99.90;;;;;;4957720;29;20254;-88
2023/01/06 06:01:38;;;;;;;1.20;1.20;;;0.80;99.90;;;;;;4958011;29;20653;-88
2023/01/06 06:04:04;;;;;;;7.77;1.77;;;0.90;99.90;;;;;;4943856;29;20198;-88
2023/01/06 06:06:30;;;;;;;2.37;2.27;;;1.10;99.90;;;;;;4956603;29;20218;-88
2023/01/06 06:08:57;;;;;;;1.97;1.80;;;1.00;99.90;;;;;;4956274;29;20238;-88
2023/01/06 06:11:22;;;;;;;1.73;1.63;;;0.90;99.90;;;;;;4956501;29;20195;-88
2023/01/06 06:13:51;;;;;;;2.13;1.97;;;0.90;99.90;;;;;;4956425;29;20187;-88
2023/01/06 06:16:18;;;;;;;3.53;1.90;;;0.90;99.90;;;;;;4957459;29;20274;-89
2023/01/06 06:18:48;;;;;;;2.53;2.13;;;0.80;99.90;;;;;;4957570;29;20187;-88
2023/01/06 06:21:16;;;;;;;2.57;2.10;;;0.80;99.90;;;;;;4955993;29;20663;-87
2023/01/06 06:23:42;;;;;;;3.77;2.60;;;0.80;99.90;;;;;;4957714;29;20266;-87
2023/01/06 06:26:09;;;;;;;4.60;2.87;;;0.80;99.90;;;;;;4957131;29;20444;-87
2023/01/06 06:28:36;;;;;;;3.77;2.10;;;0.80;99.90;;;;;;4956269;29;20191;-87
2023/01/06 06:31:10;;;;;;;1.37;1.33;;;0.80;99.90;;;;;;4956071;29;20522;-86
2023/01/06 06:33:37;;;;;;;2.63;2.43;;;0.80;99.90;;;;;;4974606;28;20196;-87
2023/01/06 06:36:04;;;;;;;2.13;1.53;;;0.80;99.90;;;;;;4974787;28;20285;-87
2023/01/06 06:38:29;;;;;;;3.40;1.87;;;0.80;99.90;;;;;;4972902;28;20196;-88
2023/01/06 06:40:55;;;;;;;1.77;1.67;;;0.90;99.90;;;;;;4975820;28;20188;-88
2023/01/06 06:43:21;;;;;;;4.53;1.97;;;0.90;99.90;;;;;;4970948;28;20683;-89
2023/01/06 06:45:47;;;;;;;3.43;2.43;;;0.90;99.90;;;;;;4962935;28;20701;-88
2023/01/06 06:48:13;;;;;;;4.27;1.47;;;0.90;99.90;;;;;;4923857;28;20191;-87
2023/01/06 06:50:39;;;;;;;5.00;2.60;;;0.90;99.90;;;;;;4961385;28;20190;-87
2023/01/06 06:53:05;;;;;;;3.97;2.97;;;0.90;99.90;;;;;;4958781;28;20556;-87
2023/01/06 06:55:32;;;;;;;1.80;1.70;;;0.90;99.90;;;;;;4958994;28;20190;-88
2023/01/06 06:57:57;;;;;;;4.13;2.77;;;0.90;99.90;;;;;;4959105;28;20183;-88
2023/01/06 07:00:24;;;;;;;2.50;1.70;;;1.00;99.90;;;;;;4958589;28;20298;-89
2023/01/06 07:02:49;;;;;;;2.17;2.00;;;1.00;99.90;;;;;;4943043;28;20197;-87
2023/01/06 07:05:16;;;;;;;4.07;2.10;;;1.00;99.90;;;;;;4976128;28;20183;-87
2023/01/06 07:07:43;;;;;;;2.57;1.40;;;0.90;99.90;;;;;;4974974;28;20240;-86
2023/01/06 07:10:13;;;;;;;1.03;1.00;;;0.90;99.90;;;;;;4974477;28;20187;-90
2023/01/06 07:12:39;;;;;;;1.57;1.47;;;0.90;99.90;;;;;;4974547;28;20668;-88
2023/01/06 07:15:05;;;;;;;3.13;1.90;;;1.00;99.90;;;;;;4958235;28;20197;-88
2023/01/06 07:17:30;;;;;;;6.47;1.77;;;1.00;99.90;;;;;;4974528;28;20186;-90
2023/01/06 07:19:56;;;;;;;1.80;1.70;;;1.00;99.90;;;;;;4958375;28;20178;-88
2023/01/06 07:22:22;;;;;;;6.23;2.27;;;1.30;99.90;;;;;;4957578;28;20660;-88
2023/01/06 07:24:47;;;;;;;1.13;1.13;;;1.00;99.90;;;;;;4957348;28;20648;-87
2023/01/06 07:27:13;;;;;;;1.20;1.10;;;1.00;99.90;;;;;;4956917;28;20226;-87
2023/01/06 07:29:39;;;;;;;2.17;1.87;;;1.00;99.90;;;;;;4958779;28;20186;-89
2023/01/06 07:32:05;;;;;;;1.60;1.50;;;1.00;99.90;;;;;;4941114;28;20194;-88
2023/01/06 07:34:31;;;;;;;1.67;1.53;;;0.90;99.90;;;;;;4957436;28;20197;-88
2023/01/06 07:36:56;;;;;;;1.80;1.57;;;1.00;99.90;;;;;;4952972;28;20206;-88
2023/01/06 07:39:22;;;;;;;1.90;1.80;;;0.90;99.90;;;;;;4956625;28;20202;-87
2023/01/06 07:41:48;;;;;;;1.37;1.27;;;0.90;99.90;;;;;;4940512;28;20623;-87
2023/01/06 07:44:13;;;;;;;3.77;2.73;;;1.00;99.90;;;;;;4937885;28;20437;-87
2023/01/06 07:46:39;;;;;;;1.63;1.53;;;0.90;99.90;;;;;;4955623;28;20688;-89
2023/01/06 07:49:05;;;;;;;2.20;1.80;;;0.90;99.90;;;;;;4955967;28;20632;-87
2023/01/06 07:51:30;;;;;;;2.00;1.90;;;0.90;99.90;;;;;;4954219;28;20647;-89
2023/01/06 07:53:56;;;;;;;1.83;1.73;;;1.10;99.90;;;;;;4956917;28;20192;-88
2023/01/06 07:56:22;;;;;;;4.13;2.57;;;0.90;99.90;;;;;;4937701;28;20230;-89
2023/01/06 07:58:48;;;;;;;4.50;2.57;;;0.90;99.90;;;;;;4938358;28;20215;-87
2023/01/06 08:01:14;;;;;;;2.47;2.20;;;0.90;99.90;;;;;;4954267;28;20675;-87
2023/01/06 08:03:40;;;;;;;3.77;2.17;;;0.80;99.90;;;;;;4972875;28;20285;-86
2023/01/06 08:06:09;;;;;;;3.00;2.70;;;0.80;99.90;;;;;;4972105;28;20217;-88
2023/01/06 08:08:39;;;;;;;3.70;3.17;;;0.80;99.90;;;;;;4972415;28;20234;-86
2023/01/06 08:11:06;;;;;;;4.07;2.83;;;0.80;99.90;;;;;;4975216;28;20278;-88
2023/01/06 08:13:32;;;;;;;2.70;2.50;;;0.70;99.90;;;;;;4973975;28;20548;-86
2023/01/06 08:16:02;;;;;;;4.83;3.00;;;0.70;99.90;;;;;;4957388;28;20411;-87
2023/01/06 08:18:28;;;;;;;2.27;2.00;;;0.80;99.90;;;;;;4974035;28;20402;-87
2023/01/06 08:21:02;;;;;;;2.73;1.97;;;0.80;99.90;;;;;;4956397;28;20185;-89
2023/01/06 08:23:28;;;;;;;1.40;1.30;;;0.80;99.90;;;;;;4955683;29;20174;-89
2023/01/06 08:26:09;;;;;;;5.60;2.53;;;0.80;99.90;;;;;;4954236;29;20211;-87
2023/01/06 08:28:35;;;;;;;4.50;2.47;;;0.80;99.90;;;;;;4955330;29;20238;-86
2023/01/06 08:31:03;;;;;;;4.00;2.23;;;0.80;99.90;;;;;;4968380;28;20695;-89
2023/01/06 08:33:29;;;;;;;7.43;2.60;;;0.80;99.90;;;;;;4955487;28;20196;-87
2023/01/06 08:35:59;;;;;;;2.27;2.07;;;0.80;99.90;;;;;;4973650;28;20198;-88
2023/01/06 08:38:25;;;;;;;1.80;1.70;;;0.80;99.90;;;;;;4956665;28;20191;-85
2023/01/06 08:40:52;;;;;;;1.57;1.47;;;0.80;99.90;;;;;;4972378;28;20179;-88
2023/01/06 08:43:18;;;;;;;2.57;2.37;;;0.80;99.90;;;;;;4961821;28;20185;-87
2023/01/06 08:45:44;;;;;;;1.60;1.30;;;0.80;99.90;;;;;;4940410;28;20227;-87
2023/01/06 08:48:09;;;;;;;4.60;2.43;;;0.80;99.90;;;;;;4957099;28;20278;-86
2023/01/06 08:50:38;;;;;;;3.10;2.30;;;0.90;99.90;;;;;;4955134;28;20199;-87
2023/01/06 08:53:04;;;;;;;2.30;2.10;;;0.80;99.90;;;;;;4960623;28;20265;-86
2023/01/06 08:55:30;;;;;;;10.20;3.43;;;0.90;99.90;;;;;;4972121;28;20274;-87
2023/01/06 08:57:56;;;;;;;2.90;2.00;;;0.90;99.90;;;;;;4974991;28;20265;-84
2023/01/06 09:00:22;;;;;;;2.87;2.13;;;0.90;99.90;;;;;;4956128;28;20185;-86
2023/01/06 09:02:47;;;;;;;1.53;1.53;;;0.90;99.90;;;;;;4958184;28;20188;-86
2023/01/06 09:05:13;;;;;;;2.47;2.27;;;0.90;99.90;;;;;;4957416;28;20659;-86
2023/01/06 09:07:40;;;;;;;2.67;2.03;;;0.80;99.90;;;;;;4953543;28;20230;-88
2023/01/06 09:10:07;;;;;;;1.53;1.37;;;0.80;99.90;;;;;;4941631;28;20545;-88
2023/01/06 09:12:33;;;;;;;4.13;2.07;;;0.80;99.90;;;;;;4956556;28;20228;-87
2023/01/06 09:14:58;;;;;;;2.63;2.10;;;0.80;99.90;;;;;;4957532;28;20183;-88
2023/01/06 09:17:24;;;;;;;4.20;3.17;;;0.80;99.90;;;;;;4957567;28;20217;-88
2023/01/06 09:19:50;;;;;;;3.23;2.60;;;0.70;99.90;;;;;;4940866;28;20183;-86
2023/01/06 09:22:16;;;;;;;1.67;1.57;;;0.70;99.90;;;;;;4956967;28;20197;-87
2023/01/06 09:24:41;;;;;;;2.60;2.30;;;0.70;99.90;;;;;;4956294;28;20199;-86
2023/01/06 09:27:07;;;;;;;2.77;1.70;;;0.80;99.90;;;;;;4957141;28;20223;-86
2023/01/06 09:29:33;;;;;;;3.63;3.33;;;0.70;99.90;;;;;;4971705;28;20252;-86
2023/01/06 09:31:58;;;;;;;6.33;3.20;;;1.30;99.90;;;;;;4972527;28;20183;-88
2023/01/06 09:34:24;;;;;;;1.80;1.70;;;0.60;99.90;;;;;;4940596;28;20194;-88
2023/01/06 09:36:49;;;;;;;6.77;2.03;;;0.70;99.90;;;;;;4952524;28;20558;-87
2023/01/06 09:39:15;;;;;;;5.47;3.50;;;0.80;99.90;;;;;;4938897;28;20969;-87
2023/01/06 09:42:04;;;;;;;1.83;1.30;;;0.80;99.90;;;;;;4940171;28;20229;-88
2023/01/06 09:44:43;;;;;;;2.67;2.47;;;0.80;99.90;;;;;;4966175;28;20783;-88
2023/01/06 09:47:17;;;;;;;1.80;1.63;;;0.70;99.90;;;;;;4954008;28;20210;-90
2023/01/06 09:49:58;;;;;;;2.33;2.10;;;0.20;99.90;;;;;;4958699;28;20191;-87
2023/01/06 09:52:38;;;;;;;1.97;1.80;;;0.60;99.90;;;;;;4963173;28;20198;-88
2023/01/06 09:55:19;;;;;;;1.83;1.37;;;0.70;99.90;;;;;;4960413;28;20202;-89
2023/01/06 09:57:55;;;;;;;1.90;1.57;;;0.70;99.90;;;;;;4968413;28;20195;-88
2023/01/06 10:00:39;;;;;;;5.07;2.33;;;0.80;99.90;;;;;;4976161;28;20183;-87
2023/01/06 10:03:11;;;;;;;3.80;1.40;;;0.80;99.90;;;;;;4973592;28;20228;-88
2023/01/06 10:05:51;;;;;;;1.40;1.40;;;0.80;99.90;;;;;;4975076;28;20214;-87
2023/01/06 10:08:29;;;;;;;2.40;2.20;;;0.70;99.90;;;;;;4960601;28;20583;-90
2023/01/06 10:11:00;;;;;;;1.97;1.87;;;0.70;99.90;;;;;;4957765;28;20194;-87
2023/01/06 10:13:33;;;;;;;1.77;1.40;;;0.70;99.90;;;;;;4957438;28;20620;-88
2023/01/06 10:16:33;;;;;;;1.70;1.60;;;0.80;99.90;;;;;;4953748;29;20179;-87
2023/01/06 10:19:36;;;;;;;1.30;1.20;;;0.80;99.90;;;;;;4947055;28;20203;-86
2023/01/06 10:22:26;;;;;;;1.40;1.40;;;0.70;99.90;;;;;;4973880;28;20190;-88
2023/01/06 10:25:33;;;;;;;1.33;1.20;;;0.70;99.90;;;;;;4985397;28;20194;-87
2023/01/06 10:27:59;;;;;;;3.67;1.63;;;0.80;99.90;;;;;;4970989;28;20206;-87
2023/01/06 10:30:36;;;;;;;3.80;2.03;;;0.80;99.90;;;;;;4977512;28;20229;-88
2023/01/06 10:33:03;;;;;;;1.03;1.03;;;0.70;99.90;;;;;;4960637;28;20194;-87
2023/01/06 10:35:31;;;;;;;2.13;1.93;;;0.70;99.90;;;;;;4977425;28;20280;-87
2023/01/06 10:38:02;;;;;;;1.77;1.67;;;0.60;99.90;;;;;;4977436;28;20281;-88
2023/01/06 10:40:29;;;;;;;1.53;1.43;;;0.70;99.90;;;;;;4944655;28;20234;-87
2023/01/06 10:43:02;;;;;;;0.80;0.80;;;0.90;99.90;;;;;;4959676;28;20190;-88
2023/01/06 10:45:34;;;;;;;3.30;2.00;;;0.60;99.90;;;;;;4976871;28;20742;-88
2023/01/06 10:48:01;;;;;;;1.83;1.73;;;0.60;99.90;;;;;;4978279;28;20188;-87
2023/01/06 10:50:27;;;;;;;1.03;1.03;;;0.60;99.90;;;;;;4979442;28;20179;-88
2023/01/06 10:52:53;;;;;;;1.73;1.63;;;0.70;99.90;;;;;;4982765;28;20265;-88
2023/01/06 10:55:25;;;;;;;1.30;1.30;;;0.70;99.90;;;;;;4963488;28;20213;-88
2023/01/06 10:57:55;;;;;;;1.47;1.43;;;0.60;99.90;;;;;;4978740;28;20262;-90
2023/01/06 11:00:27;;;;;;;1.50;1.40;;;0.70;99.90;;;;;;4971031;28;20184;-90
2023/01/06 11:03:02;;;;;;;1.10;1.10;;;0.60;99.90;;;;;;4978613;28;20178;-89
2023/01/06 11:05:29;;;;;;;3.03;1.63;;;0.70;99.90;;;;;;4963004;28;20186;-89
2023/01/06 11:08:08;;;;;;;2.10;1.90;;;0.60;99.90;;;;;;4979232;28;20289;-89
2023/01/06 11:10:41;;;;;;;2.50;2.17;;;0.60;99.90;;;;;;4978786;28;20186;-89
2023/01/06 11:13:23;;;;;;;7.77;3.50;;;0.60;99.90;;;;;;4978647;28;20213;-90
2023/01/06 11:15:50;;;;;;;3.23;2.87;;;0.60;99.90;;;;;;4963221;28;20182;-89
2023/01/06 11:18:28;;;;;;;3.17;2.57;;;0.50;99.90;;;;;;4978164;28;20183;-90
2023/01/06 11:21:06;;;;;;;2.07;1.93;;;0.50;99.90;;;;;;4983106;28;20189;-91
2023/01/06 11:23:33;;;;;;;3.13;2.27;;;0.60;99.90;;;;;;4968423;28;20218;-91
2023/01/06 11:26:12;;;;;;;2.20;2.03;;;0.60;99.90;;;;;;4978842;28;20702;-89
2023/01/06 11:28:42;;;;;;;2.13;2.00;;;0.60;99.90;;;;;;4979465;28;20185;-88
2023/01/06 11:31:28;;;;;;;1.87;1.63;;;0.50;99.90;;;;;;4948679;28;20284;-89
2023/01/06 11:34:01;;;;;;;1.60;1.37;;;0.60;99.90;;;;;;4960770;28;20249;-88
2023/01/06 11:36:30;;;;;;;2.60;2.33;;;0.60;99.90;;;;;;4961765;28;20641;-90
2023/01/06 11:38:59;;;;;;;13.00;2.30;;;0.60;99.90;;;;;;4973407;28;20197;-88
2023/01/06 11:41:39;;;;;;;2.57;2.37;;;0.50;99.90;;;;;;4977892;28;20174;-87
2023/01/06 11:44:12;;;;;;;3.43;2.43;;;0.60;99.90;;;;;;4967221;28;20186;-87
2023/01/06 11:46:46;;;;;;;6.93;3.10;;;0.70;99.90;;;;;;4976599;28;20210;-86
2023/01/06 11:49:28;;;;;;;2.90;2.70;;;0.60;99.90;;;;;;4955259;28;20182;-87
2023/01/06 11:52:24;;;;;;;2.03;1.90;;;0.60;99.90;;;;;;4970936;28;20645;-87
2023/01/06 11:55:05;;;;;;;3.43;2.73;;;0.60;99.90;;;;;;4955296;28;20202;-87
2023/01/06 11:58:12;;;;;;;2.93;1.80;;;0.60;99.90;;;;;;4958395;28;20193;-88
2023/01/06 12:00:43;;;;;;;2.97;2.00;;;0.70;99.90;;;;;;4930419;29;20252;-86
2023/01/06 12:03:18;;;;;;;2.57;2.40;;;0.70;99.90;;;;;;4939004;29;20284;-87
2023/01/06 12:06:19;;;;;;;2.27;2.00;;;0.80;99.90;;;;;;4958644;28;20234;-86
2023/01/06 12:09:05;;;;;;;4.03;2.10;;;0.80;99.90;;;;;;4963174;28;20254;-90
2023/01/06 12:11:39;;;;;;;3.53;3.13;;;0.80;99.90;;;;;;4958251;28;20209;-88
2023/01/06 12:14:26;;;;;;;3.03;2.03;;;1.00;99.90;;;;;;4955283;28;20229;-86
2023/01/06 12:17:10;;;;;;;4.20;3.13;;;0.70;99.90;;;;;;4942122;28;20277;-88
2023/01/06 12:19:44;;;;;;;23.17;5.63;;;0.80;99.90;;;;;;4980920;28;20663;-87
2023/01/06 12:22:21;;;;;;;4.83;2.47;;;0.90;99.90;;;;;;4958993;28;20237;-87
2023/01/06 12:24:49;;;;;;;4.83;3.20;;;0.80;99.90;;;;;;4974016;28;20273;-86
2023/01/06 12:27:23;;;;;;;7.67;3.33;;;0.80;99.90;;;;;;4961102;28;20305;-86
2023/01/06 12:29:51;;;;;;;4.13;1.97;;;0.90;99.90;;;;;;4956153;28;20277;-87
2023/01/06 12:32:22;;;;;;;4.97;3.40;;;0.90;99.90;;;;;;4974901;28;20195;-86
2023/01/06 12:34:51;;;;;;;4.00;3.40;;;0.90;99.90;;;;;;4974087;28;20692;-87
2023/01/06 12:37:36;;;;;;;6.60;4.60;;;0.90;99.90;;;;;;4973143;28;20178;-87
2023/01/06 12:40:19;;;;;;;6.20;3.77;;;1.00;99.90;;;;;;4975043;28;20662;-87
2023/01/06 12:43:06;;;;;;;3.47;3.07;;;1.00;99.90;;;;;;4974883;28;20178;-87
2023/01/06 12:45:58;;;;;;;7.23;4.33;;;1.00;99.90;;;;;;4972399;28;20193;-85
2023/01/06 12:48:39;;;;;;;3.57;2.60;;;1.00;99.90;;;;;;4974723;28;20256;-85
2023/01/06 12:51:30;;;;;;;4.50;2.43;;;1.00;99.90;;;;;;4972744;28;20193;-87
2023/01/06 12:54:16;;;;;;;3.67;3.37;;;1.00;99.90;;;;;;4957407;28;20594;-87
2023/01/06 12:57:19;;;;;;;3.20;2.67;;;1.00;99.90;;;;;;4973652;28;20183;-85
2023/01/06 13:00:22;;;;;;;3.47;3.03;;;1.00;99.90;;;;;;4954800;28;20212;-87
2023/01/06 13:02:48;;;;;;;3.47;2.77;;;;;;;;;;4954225;29;20185;-88
2023/01/06 13:05:28;;;;;;;6.37;2.23;;;1.10;99.90;;;;;;4954571;29;20186;-87
2023/01/06 13:08:07;;;;;;;5.53;3.33;;;1.00;99.90;;;;;;4954202;28;20704;-88
2023/01/06 13:10:41;;;;;;;5.77;2.80;;;1.00;99.90;;;;;;4955534;29;20168;-85
2023/01/06 13:13:25;;;;;;;2.77;2.57;;;1.00;99.90;;;;;;4963543;28;20190;-85
2023/01/06 13:15:53;;;;;;;2.83;2.60;;;1.00;99.90;;;;;;4973882;28;20194;-86
2023/01/06 13:18:51;;;;;;;3.00;2.70;;;1.00;99.90;;;;;;4941592;28;20196;-88
2023/01/06 13:21:21;;;;;;;3.73;2.97;;;1.00;99.90;;;;;;4966811;28;20194;-87
2023/01/06 13:23:58;;;;;;;3.40;3.03;;;0.90;99.90;;;;;;4957744;28;20195;-87
2023/01/06 13:26:54;;;;;;;4.23;3.13;;;0.90;99.90;;;;;;4973104;28;20217;-86